This is the latest recevied weather packets stored in our database for station/object WX5RP. If no packets are shown the sender has not sent any weather packets the latest 10 day(s).
| Time | Temp. | Humidity | Pressure | Rain* | Wind** | Luminosity | Snow |
|---|---|---|---|---|---|---|---|
| 1787839216 | 8.33° C | 82% | 1019.6 hPa | 0 mm | - | 40 W/m² | - |
| 1787838616 | 8.33° C | 81% | 1019.6 hPa | 0 mm | - | 28 W/m² | - |
| 1787838016 | 8.33° C | 82% | 1019.5 hPa | 0 mm | - | 13 W/m² | - |
| 1787837416 | 7.78° C | 81% | 1019.2 hPa | 0 mm | - | 7 W/m² | - |
| 1787836816 | 8.33° C | 81% | 1019.8 hPa | 0 mm | - | 0 W/m² | - |
| 1787836215 | 8.33° C | 80% | 1019.6 hPa | 0 mm | - | 0 W/m² | - |
| 1787835615 | 8.33° C | 79% | 1019.9 hPa | 0 mm | - | 0 W/m² | - |
| 1787835016 | 9.44° C | 77% | 1019.9 hPa | 0 mm | - | 0 W/m² | - |
| 1787834415 | 10° C | 76% | 1020 hPa | 0 mm | - | 0 W/m² | - |
| 1787833815 | 10.56° C | 77% | 1019.8 hPa | 0 mm | - | 0 W/m² | - |
| 1787833215 | 10° C | 78% | 1019.9 hPa | 0 mm | - | 0 W/m² | - |
| 1787832615 | 10.56° C | 77% | 1019.7 hPa | 0 mm | - | 0 W/m² | - |
| 1787832015 | 10.56° C | 78% | 1019.7 hPa | 0 mm | - | 0 W/m² | - |
| 1787831415 | 10° C | 78% | 1020 hPa | 0 mm | - | 0 W/m² | - |
| 1787830815 | 10° C | 77% | 1020.4 hPa | 0 mm | - | 0 W/m² | - |
| 1787830217 | 10° C | 77% | 1020.4 hPa | 0 mm | - | 0 W/m² | - |
| 1787829631 | 10.56° C | 76% | 1020.2 hPa | 0 mm | - | 0 W/m² | - |
| 1787829018 | 10.56° C | 76% | 1019.8 hPa | 0 mm | - | 0 W/m² | - |
| 1787828417 | 10° C | 75% | 1019.8 hPa | 0 mm | - | 0 W/m² | - |
| 1787827817 | 11.11° C | 70% | 1019.9 hPa | 0 mm | - | 0 W/m² | - |
| 1787827217 | 11.67° C | 70% | 1020.1 hPa | 0 mm | - | 0 W/m² | - |
| 1787826617 | 11.11° C | 72% | 1019.8 hPa | 0 mm | - | 0 W/m² | - |
| 1787826017 | 10.56° C | 74% | 1019.7 hPa | 0 mm | - | 0 W/m² | - |
| 1787825417 | 11.11° C | 73% | 1019.2 hPa | 0 mm | - | 0 W/m² | - |
| 1787824817 | 11.67° C | 72% | 1019.5 hPa | 0 mm | - | 0 W/m² | - |
* Rain latest hour (hover to see other rain measurements)
** Current wind speed in m/s (hover to see current wind gust speed)